Aeroporto :
LOGIN :

Iscrizione | Disclaimer

   EN    FR    IT 

 










Sommario :    VFR   VFR Marginale   IFR   IFR Intensivo   IFR Molto Intensivo
Visibilità : 
Base nubi : 
>= 8 km
>= 3000ft
5 / 8 km
1000 / 3000 ft
1500m / 5 km
500 / 1000 ft
800 / 1500m
200 / 500 ft
< 800m
< 200 ft
Simboli :   Temporali  Nebbia  Neve Forte  Precipitazioni Forti  Vento > 20 kt
SIGMETs :   Varie  Temporali  Ghiacco  Turbolenza  Onda orograficha  Ceneri Vulcaniche







- Altitudine del aeroporto : 359 ft
- Codice IATA : BVA
- Carte del aeroporto


LFOB - Beauvais

ULTIMO METAR :
  • 161030Z AUTO 00000KT CAVOK 08/06 Q1027 NOSIG

METARs OBSOLETI :
  • 161000Z AUTO 00000KT 8000 NSC 06/04 Q1027 NOSIG
  • 160930Z AUTO 00000KT 6000 NSC 05/04 Q1027 NOSIG
  • 160900Z AUTO 00000KT 4500 BR NSC 04/04 Q1026 BECMG 9999 NSW
  • 160830Z AUTO 12002KT 2900 BR NSC 02/02 Q1027 BECMG 9999 NSW
  • 160800Z AUTO 00000KT 2500 BR NSC 01/01 Q1026 BECMG 9999 NSW

TAF AMD TAF LFOB
Valido dal 16 a 08 ore il 17 a 06 ore UTC


160834Z 1608/1706 16005KT 2500 BR NSC
BECMG 1608/1610 CAVOK
TEMPO 1702/1706 0800 BCFG
ATIS : +33 3 44 11 49 28
Nessun NOTAM noto per questo aeroporto.



MetMap, La meteo Aeronautica in un colpo d'occhio ! - Copyright ORBIFLY Dicembre 2007 - Disclaimer

ORBIFLY MET'MAP TEAM :

Programmazione e sviluppo : Alexandra Zaïnal
Concezione e sviluppo : Baudouin d'Aumeries
Co-Programmazione e sviluppo : Marc-Olivier Méhu
Supporto tecnico e logistico : Manuel Goepfert
Aiuto per la traduzione : Arnaldo La Scala

Contatto : metmap@orbifly.com




FONTI E CREDITI :

   NOAA